Archival Weather

South Haven Area Rgnl

South Haven, Michigan (KLWA)

Report from: Wednesday, December 6, 2023 12:15 PM EST
Current time: Saturday, February 24, 2024 10:40 AM EST

Current weather – Weather history – Daily summaries
Weather forecast

Temperature4.1°C (39.4°F)
Wind chill1.4°C (34.5°F)
Dew point-2.2°C (28.0°F)
Winds 6 kts (3.1 m/s, 6.9 mph) West (280°)
Visibility10 mi. (16.1 km)
Clouds Ceiling: Overcast 3,100 ft. (945 m)
Altimeter30.24 in.Hg (1024 mB)
Relative humidity63 %
Density altitude-1,605 ft. (-489 m)
Remarks Fully automated report
Automated weather observing station with precipitation discriminator
Flight conditions Visual Meteorological Conditions
Raw dataKLWA 061715Z AUTO 28006KT 10SM OVC031 04/M02 A3024 RMK AO2 T00411022
An error has occurred. This application may no longer respond until reloaded. Reload 🗙